sensor_id;sensor_type;location;lat;lon;timestamp;P1;durP1;ratioP1;P2;durP2;ratioP2
18999;SDS011;9633;50.980;13.850;2023-08-01T00:00:32;4.93;;;3.30;;
18999;SDS011;9633;50.980;13.850;2023-08-01T00:02:05;5.70;;;3.10;;
18999;SDS011;9633;50.980;13.850;2023-08-01T00:03:40;4.73;;;3.13;;
18999;SDS011;9633;50.980;13.850;2023-08-01T00:05:13;5.80;;;3.10;;
18999;SDS011;9633;50.980;13.850;2023-08-01T00:06:46;4.10;;;2.77;;
18999;SDS011;9633;50.980;13.850;2023-08-01T00:08:19;5.70;;;3.33;;
18999;SDS011;9633;50.980;13.850;2023-08-01T00:09:51;5.87;;;3.30;;
18999;SDS011;9633;50.980;13.850;2023-08-01T00:11:24;6.00;;;3.07;;
18999;SDS011;9633;50.980;13.850;2023-08-01T00:12:56;6.27;;;3.20;;
18999;SDS011;9633;50.980;13.850;2023-08-01T00:14:29;5.40;;;3.37;;
18999;SDS011;9633;50.980;13.850;2023-08-01T00:16:02;4.77;;;3.27;;
18999;SDS011;9633;50.980;13.850;2023-08-01T00:17:38;5.43;;;3.20;;
18999;SDS011;9633;50.980;13.850;2023-08-01T00:19:12;5.97;;;3.10;;
18999;SDS011;9633;50.980;13.850;2023-08-01T00:20:45;4.53;;;2.63;;
18999;SDS011;9633;50.980;13.850;2023-08-01T00:22:17;4.17;;;3.00;;
18999;SDS011;9633;50.980;13.850;2023-08-01T00:23:51;4.67;;;3.03;;
18999;SDS011;9633;50.980;13.850;2023-08-01T00:25:23;4.77;;;3.07;;
18999;SDS011;9633;50.980;13.850;2023-08-01T00:26:56;6.77;;;3.30;;
18999;SDS011;9633;50.980;13.850;2023-08-01T00:28:28;6.23;;;3.20;;
18999;SDS011;9633;50.980;13.850;2023-08-01T00:30:02;3.93;;;2.87;;
18999;SDS011;9633;50.980;13.850;2023-08-01T00:31:35;5.17;;;3.13;;
18999;SDS011;9633;50.980;13.850;2023-08-01T00:33:08;5.77;;;3.13;;
18999;SDS011;9633;50.980;13.850;2023-08-01T00:34:42;5.03;;;3.23;;
18999;SDS011;9633;50.980;13.850;2023-08-01T00:36:15;4.70;;;3.43;;
18999;SDS011;9633;50.980;13.850;2023-08-01T00:37:47;4.27;;;2.83;;
18999;SDS011;9633;50.980;13.850;2023-08-01T00:39:20;4.43;;;3.10;;
18999;SDS011;9633;50.980;13.850;2023-08-01T00:40:52;7.13;;;3.13;;
18999;SDS011;9633;50.980;13.850;2023-08-01T00:42:25;4.67;;;3.37;;
18999;SDS011;9633;50.980;13.850;2023-08-01T00:43:58;3.83;;;2.90;;
18999;SDS011;9633;50.980;13.850;2023-08-01T00:45:31;4.97;;;3.00;;
18999;SDS011;9633;50.980;13.850;2023-08-01T00:47:03;5.73;;;2.93;;
18999;SDS011;9633;50.980;13.850;2023-08-01T00:48:38;3.73;;;3.33;;
18999;SDS011;9633;50.980;13.850;2023-08-01T00:50:11;4.03;;;3.23;;
18999;SDS011;9633;50.980;13.850;2023-08-01T00:51:44;5.40;;;3.20;;
18999;SDS011;9633;50.980;13.850;2023-08-01T00:53:17;4.77;;;3.30;;
18999;SDS011;9633;50.980;13.850;2023-08-01T00:54:50;5.63;;;3.27;;
18999;SDS011;9633;50.980;13.850;2023-08-01T00:56:23;4.73;;;3.10;;
18999;SDS011;9633;50.980;13.850;2023-08-01T00:57:56;7.17;;;3.13;;
18999;SDS011;9633;50.980;13.850;2023-08-01T00:59:29;5.47;;;3.10;;
18999;SDS011;9633;50.980;13.850;2023-08-01T01:01:02;4.70;;;3.30;;
18999;SDS011;9633;50.980;13.850;2023-08-01T01:02:35;4.33;;;3.00;;
18999;SDS011;9633;50.980;13.850;2023-08-01T01:04:09;3.93;;;2.73;;
18999;SDS011;9633;50.980;13.850;2023-08-01T01:05:47;3.73;;;3.07;;
18999;SDS011;9633;50.980;13.850;2023-08-01T01:07:25;4.27;;;2.90;;
18999;SDS011;9633;50.980;13.850;2023-08-01T01:08:58;7.10;;;3.37;;
18999;SDS011;9633;50.980;13.850;2023-08-01T01:10:30;5.47;;;3.30;;
18999;SDS011;9633;50.980;13.850;2023-08-01T01:12:04;5.60;;;3.00;;
18999;SDS011;9633;50.980;13.850;2023-08-01T01:13:38;3.73;;;3.00;;
18999;SDS011;9633;50.980;13.850;2023-08-01T01:15:10;6.90;;;3.40;;
18999;SDS011;9633;50.980;13.850;2023-08-01T01:16:44;4.37;;;2.97;;
18999;SDS011;9633;50.980;13.850;2023-08-01T01:18:16;4.57;;;3.20;;
18999;SDS011;9633;50.980;13.850;2023-08-01T01:19:49;5.20;;;3.60;;
18999;SDS011;9633;50.980;13.850;2023-08-01T01:21:22;4.33;;;3.13;;
18999;SDS011;9633;50.980;13.850;2023-08-01T01:23:01;4.07;;;2.90;;
18999;SDS011;9633;50.980;13.850;2023-08-01T01:24:35;3.93;;;3.10;;
18999;SDS011;9633;50.980;13.850;2023-08-01T01:26:09;4.83;;;3.10;;
18999;SDS011;9633;50.980;13.850;2023-08-01T01:27:42;5.57;;;3.30;;
18999;SDS011;9633;50.980;13.850;2023-08-01T01:29:17;6.47;;;3.20;;
18999;SDS011;9633;50.980;13.850;2023-08-01T01:30:50;4.23;;;3.10;;
18999;SDS011;9633;50.980;13.850;2023-08-01T01:32:25;4.13;;;2.80;;
18999;SDS011;9633;50.980;13.850;2023-08-01T01:33:59;5.37;;;3.47;;
18999;SDS011;9633;50.980;13.850;2023-08-01T01:35:33;5.23;;;3.17;;
18999;SDS011;9633;50.980;13.850;2023-08-01T01:37:08;4.93;;;3.43;;
18999;SDS011;9633;50.980;13.850;2023-08-01T01:38:40;4.77;;;3.20;;
18999;SDS011;9633;50.980;13.850;2023-08-01T01:40:14;3.93;;;3.27;;
18999;SDS011;9633;50.980;13.850;2023-08-01T01:41:47;4.73;;;3.77;;
18999;SDS011;9633;50.980;13.850;2023-08-01T01:43:20;5.40;;;3.00;;
18999;SDS011;9633;50.980;13.850;2023-08-01T01:44:53;4.37;;;3.50;;
18999;SDS011;9633;50.980;13.850;2023-08-01T01:46:26;4.77;;;3.40;;
18999;SDS011;9633;50.980;13.850;2023-08-01T01:47:59;4.60;;;3.30;;
18999;SDS011;9633;50.980;13.850;2023-08-01T01:49:32;5.43;;;3.43;;
18999;SDS011;9633;50.980;13.850;2023-08-01T01:51:04;6.10;;;3.83;;
18999;SDS011;9633;50.980;13.850;2023-08-01T01:52:39;6.27;;;3.60;;
18999;SDS011;9633;50.980;13.850;2023-08-01T01:54:11;4.73;;;3.20;;
18999;SDS011;9633;50.980;13.850;2023-08-01T01:55:44;5.97;;;3.90;;
18999;SDS011;9633;50.980;13.850;2023-08-01T01:57:18;4.53;;;3.70;;
18999;SDS011;9633;50.980;13.850;2023-08-01T01:58:50;5.03;;;3.60;;
18999;SDS011;9633;50.980;13.850;2023-08-01T02:00:23;4.33;;;3.30;;
18999;SDS011;9633;50.980;13.850;2023-08-01T02:01:55;6.03;;;3.33;;
18999;SDS011;9633;50.980;13.850;2023-08-01T02:03:29;6.00;;;3.57;;
18999;SDS011;9633;50.980;13.850;2023-08-01T02:05:01;4.63;;;3.40;;
18999;SDS011;9633;50.980;13.850;2023-08-01T02:06:35;4.67;;;3.63;;
18999;SDS011;9633;50.980;13.850;2023-08-01T02:08:10;5.00;;;3.50;;
18999;SDS011;9633;50.980;13.850;2023-08-01T02:09:42;5.43;;;3.47;;
18999;SDS011;9633;50.980;13.850;2023-08-01T02:11:15;4.73;;;3.60;;
18999;SDS011;9633;50.980;13.850;2023-08-01T02:12:48;6.73;;;3.63;;
18999;SDS011;9633;50.980;13.850;2023-08-01T02:14:21;5.83;;;3.50;;
18999;SDS011;9633;50.980;13.850;2023-08-01T02:15:53;4.43;;;3.60;;
18999;SDS011;9633;50.980;13.850;2023-08-01T02:17:27;6.60;;;3.17;;
18999;SDS011;9633;50.980;13.850;2023-08-01T02:18:59;4.67;;;3.07;;
18999;SDS011;9633;50.980;13.850;2023-08-01T02:20:37;5.17;;;3.23;;
18999;SDS011;9633;50.980;13.850;2023-08-01T02:22:09;4.73;;;3.10;;
18999;SDS011;9633;50.980;13.850;2023-08-01T02:23:44;4.27;;;3.10;;
18999;SDS011;9633;50.980;13.850;2023-08-01T02:25:16;5.60;;;3.30;;
18999;SDS011;9633;50.980;13.850;2023-08-01T02:26:49;5.07;;;3.70;;
18999;SDS011;9633;50.980;13.850;2023-08-01T02:28:22;4.47;;;3.40;;
18999;SDS011;9633;50.980;13.850;2023-08-01T02:29:55;4.67;;;3.60;;
18999;SDS011;9633;50.980;13.850;2023-08-01T02:31:27;5.83;;;3.50;;
18999;SDS011;9633;50.980;13.850;2023-08-01T02:33:01;5.13;;;3.27;;
18999;SDS011;9633;50.980;13.850;2023-08-01T02:34:33;3.70;;;3.40;;
18999;SDS011;9633;50.980;13.850;2023-08-01T02:36:07;4.03;;;3.23;;
18999;SDS011;9633;50.980;13.850;2023-08-01T02:37:39;5.10;;;3.23;;
18999;SDS011;9633;50.980;13.850;2023-08-01T02:39:13;4.60;;;3.67;;
18999;SDS011;9633;50.980;13.850;2023-08-01T02:40:46;5.93;;;3.50;;
18999;SDS011;9633;50.980;13.850;2023-08-01T02:42:19;6.87;;;3.50;;
18999;SDS011;9633;50.980;13.850;2023-08-01T02:43:51;4.63;;;3.40;;
18999;SDS011;9633;50.980;13.850;2023-08-01T02:45:25;3.77;;;3.37;;
18999;SDS011;9633;50.980;13.850;2023-08-01T02:46:57;4.50;;;3.30;;
18999;SDS011;9633;50.980;13.850;2023-08-01T02:48:30;5.33;;;3.23;;
18999;SDS011;9633;50.980;13.850;2023-08-01T02:50:04;4.83;;;3.60;;
18999;SDS011;9633;50.980;13.850;2023-08-01T02:51:37;6.97;;;3.40;;
18999;SDS011;9633;50.980;13.850;2023-08-01T02:53:10;6.40;;;3.70;;
18999;SDS011;9633;50.980;13.850;2023-08-01T02:54:45;3.60;;;3.10;;
18999;SDS011;9633;50.980;13.850;2023-08-01T02:56:17;5.83;;;3.33;;
18999;SDS011;9633;50.980;13.850;2023-08-01T02:57:50;4.73;;;3.43;;
18999;SDS011;9633;50.980;13.850;2023-08-01T02:59:23;3.77;;;3.23;;
18999;SDS011;9633;50.980;13.850;2023-08-01T03:00:55;4.83;;;3.43;;
18999;SDS011;9633;50.980;13.850;2023-08-01T03:02:28;5.47;;;3.43;;
18999;SDS011;9633;50.980;13.850;2023-08-01T03:04:01;5.37;;;3.30;;
18999;SDS011;9633;50.980;13.850;2023-08-01T03:05:35;5.03;;;3.30;;
18999;SDS011;9633;50.980;13.850;2023-08-01T03:07:07;4.67;;;3.20;;
18999;SDS011;9633;50.980;13.850;2023-08-01T03:08:40;3.93;;;3.10;;
18999;SDS011;9633;50.980;13.850;2023-08-01T03:10:14;4.80;;;3.10;;
18999;SDS011;9633;50.980;13.850;2023-08-01T03:12:06;5.70;;;3.27;;
18999;SDS011;9633;50.980;13.850;2023-08-01T03:13:39;5.50;;;3.57;;
18999;SDS011;9633;50.980;13.850;2023-08-01T03:15:12;4.57;;;3.30;;
18999;SDS011;9633;50.980;13.850;2023-08-01T03:16:45;6.40;;;3.80;;
18999;SDS011;9633;50.980;13.850;2023-08-01T03:18:17;4.70;;;3.40;;
18999;SDS011;9633;50.980;13.850;2023-08-01T03:19:51;3.97;;;3.57;;
18999;SDS011;9633;50.980;13.850;2023-08-01T03:21:23;4.33;;;3.17;;
18999;SDS011;9633;50.980;13.850;2023-08-01T03:22:57;4.70;;;3.53;;
18999;SDS011;9633;50.980;13.850;2023-08-01T03:24:30;5.00;;;3.63;;
18999;SDS011;9633;50.980;13.850;2023-08-01T03:26:05;4.77;;;3.93;;
18999;SDS011;9633;50.980;13.850;2023-08-01T03:27:38;4.40;;;4.00;;
18999;SDS011;9633;50.980;13.850;2023-08-01T03:29:11;4.30;;;3.70;;
18999;SDS011;9633;50.980;13.850;2023-08-01T03:30:43;5.20;;;3.63;;
18999;SDS011;9633;50.980;13.850;2023-08-01T03:32:16;5.23;;;3.93;;
18999;SDS011;9633;50.980;13.850;2023-08-01T03:33:52;5.20;;;4.13;;
18999;SDS011;9633;50.980;13.850;2023-08-01T03:35:24;6.13;;;4.03;;
18999;SDS011;9633;50.980;13.850;2023-08-01T03:36:57;5.60;;;4.23;;
18999;SDS011;9633;50.980;13.850;2023-08-01T03:38:31;6.43;;;4.13;;
18999;SDS011;9633;50.980;13.850;2023-08-01T03:40:03;8.80;;;4.60;;
18999;SDS011;9633;50.980;13.850;2023-08-01T03:41:41;5.87;;;4.40;;
18999;SDS011;9633;50.980;13.850;2023-08-01T03:43:14;6.50;;;4.70;;
18999;SDS011;9633;50.980;13.850;2023-08-01T03:44:46;6.53;;;4.67;;
18999;SDS011;9633;50.980;13.850;2023-08-01T03:46:20;7.57;;;4.73;;
18999;SDS011;9633;50.980;13.850;2023-08-01T03:47:52;5.80;;;4.53;;
18999;SDS011;9633;50.980;13.850;2023-08-01T03:49:27;6.67;;;5.23;;
18999;SDS011;9633;50.980;13.850;2023-08-01T03:50:59;6.90;;;5.37;;
18999;SDS011;9633;50.980;13.850;2023-08-01T03:52:34;5.17;;;4.10;;
18999;SDS011;9633;50.980;13.850;2023-08-01T03:54:06;7.30;;;5.40;;
18999;SDS011;9633;50.980;13.850;2023-08-01T03:55:44;7.63;;;5.73;;
18999;SDS011;9633;50.980;13.850;2023-08-01T03:57:19;7.23;;;6.50;;
18999;SDS011;9633;50.980;13.850;2023-08-01T03:58:52;7.83;;;6.73;;
18999;SDS011;9633;50.980;13.850;2023-08-01T04:00:25;7.90;;;6.80;;
18999;SDS011;9633;50.980;13.850;2023-08-01T04:02:03;7.97;;;7.13;;
18999;SDS011;9633;50.980;13.850;2023-08-01T04:03:37;7.47;;;5.57;;
18999;SDS011;9633;50.980;13.850;2023-08-01T04:05:10;6.77;;;6.07;;
18999;SDS011;9633;50.980;13.850;2023-08-01T04:06:43;7.67;;;6.43;;
18999;SDS011;9633;50.980;13.850;2023-08-01T04:08:15;7.63;;;6.27;;
18999;SDS011;9633;50.980;13.850;2023-08-01T04:09:48;7.50;;;6.67;;
18999;SDS011;9633;50.980;13.850;2023-08-01T04:11:21;8.50;;;7.57;;
18999;SDS011;9633;50.980;13.850;2023-08-01T04:12:56;11.43;;;9.03;;
18999;SDS011;9633;50.980;13.850;2023-08-01T04:14:29;9.17;;;8.27;;
18999;SDS011;9633;50.980;13.850;2023-08-01T04:16:01;9.27;;;8.30;;
18999;SDS011;9633;50.980;13.850;2023-08-01T04:17:34;9.30;;;8.33;;
18999;SDS011;9633;50.980;13.850;2023-08-01T04:19:07;9.60;;;8.07;;
18999;SDS011;9633;50.980;13.850;2023-08-01T04:20:41;9.33;;;8.20;;
18999;SDS011;9633;50.980;13.850;2023-08-01T04:22:13;9.37;;;8.47;;
18999;SDS011;9633;50.980;13.850;2023-08-01T04:23:46;8.80;;;7.90;;
18999;SDS011;9633;50.980;13.850;2023-08-01T04:25:18;10.20;;;9.10;;
18999;SDS011;9633;50.980;13.850;2023-08-01T04:26:52;9.73;;;8.73;;
18999;SDS011;9633;50.980;13.850;2023-08-01T04:28:26;10.37;;;9.07;;
18999;SDS011;9633;50.980;13.850;2023-08-01T04:30:00;10.83;;;9.67;;
18999;SDS011;9633;50.980;13.850;2023-08-01T04:31:32;10.30;;;9.10;;
18999;SDS011;9633;50.980;13.850;2023-08-01T04:33:05;9.43;;;8.50;;
18999;SDS011;9633;50.980;13.850;2023-08-01T04:34:38;10.97;;;8.83;;
18999;SDS011;9633;50.980;13.850;2023-08-01T04:36:11;9.87;;;8.37;;
18999;SDS011;9633;50.980;13.850;2023-08-01T04:37:44;9.53;;;8.40;;
18999;SDS011;9633;50.980;13.850;2023-08-01T04:39:16;9.40;;;7.80;;
18999;SDS011;9633;50.980;13.850;2023-08-01T04:40:49;9.07;;;7.80;;
18999;SDS011;9633;50.980;13.850;2023-08-01T04:42:22;9.67;;;8.10;;
18999;SDS011;9633;50.980;13.850;2023-08-01T04:43:56;8.60;;;7.80;;
18999;SDS011;9633;50.980;13.850;2023-08-01T04:45:29;8.70;;;7.90;;
18999;SDS011;9633;50.980;13.850;2023-08-01T04:47:02;9.87;;;8.40;;
18999;SDS011;9633;50.980;13.850;2023-08-01T04:48:35;9.10;;;8.20;;
18999;SDS011;9633;50.980;13.850;2023-08-01T04:50:09;8.03;;;7.23;;
18999;SDS011;9633;50.980;13.850;2023-08-01T04:51:41;8.23;;;7.43;;
18999;SDS011;9633;50.980;13.850;2023-08-01T04:53:14;7.57;;;6.73;;
18999;SDS011;9633;50.980;13.850;2023-08-01T04:54:47;7.50;;;6.80;;
18999;SDS011;9633;50.980;13.850;2023-08-01T04:56:20;7.33;;;6.63;;
18999;SDS011;9633;50.980;13.850;2023-08-01T04:57:52;6.83;;;5.93;;
18999;SDS011;9633;50.980;13.850;2023-08-01T04:59:26;7.17;;;6.47;;
18999;SDS011;9633;50.980;13.850;2023-08-01T05:00:59;7.00;;;6.40;;
18999;SDS011;9633;50.980;13.850;2023-08-01T05:02:32;6.83;;;6.23;;
18999;SDS011;9633;50.980;13.850;2023-08-01T05:04:05;6.60;;;6.00;;
18999;SDS011;9633;50.980;13.850;2023-08-01T05:05:37;6.80;;;6.10;;
18999;SDS011;9633;50.980;13.850;2023-08-01T05:07:10;6.83;;;6.23;;
18999;SDS011;9633;50.980;13.850;2023-08-01T05:08:43;7.47;;;6.77;;
18999;SDS011;9633;50.980;13.850;2023-08-01T05:10:16;7.47;;;6.77;;
18999;SDS011;9633;50.980;13.850;2023-08-01T05:11:49;7.27;;;6.67;;
18999;SDS011;9633;50.980;13.850;2023-08-01T05:13:23;8.07;;;7.27;;
18999;SDS011;9633;50.980;13.850;2023-08-01T05:14:56;7.73;;;7.03;;
18999;SDS011;9633;50.980;13.850;2023-08-01T05:16:29;7.57;;;6.87;;
18999;SDS011;9633;50.980;13.850;2023-08-01T05:18:02;8.13;;;7.33;;
18999;SDS011;9633;50.980;13.850;2023-08-01T05:19:35;8.50;;;7.70;;
18999;SDS011;9633;50.980;13.850;2023-08-01T05:21:07;8.13;;;7.43;;
18999;SDS011;9633;50.980;13.850;2023-08-01T05:22:40;8.23;;;6.63;;
18999;SDS011;9633;50.980;13.850;2023-08-01T05:24:13;8.40;;;7.47;;
18999;SDS011;9633;50.980;13.850;2023-08-01T05:25:46;8.20;;;7.43;;
18999;SDS011;9633;50.980;13.850;2023-08-01T05:27:19;9.10;;;8.20;;
18999;SDS011;9633;50.980;13.850;2023-08-01T05:28:52;8.90;;;8.00;;
18999;SDS011;9633;50.980;13.850;2023-08-01T05:30:26;8.70;;;7.90;;
18999;SDS011;9633;50.980;13.850;2023-08-01T05:31:59;9.33;;;8.00;;
18999;SDS011;9633;50.980;13.850;2023-08-01T05:33:31;8.57;;;7.83;;
18999;SDS011;9633;50.980;13.850;2023-08-01T05:35:05;8.70;;;7.90;;
18999;SDS011;9633;50.980;13.850;2023-08-01T05:36:38;8.80;;;7.90;;
18999;SDS011;9633;50.980;13.850;2023-08-01T05:38:11;8.17;;;7.37;;
18999;SDS011;9633;50.980;13.850;2023-08-01T05:39:43;8.47;;;7.73;;
18999;SDS011;9633;50.980;13.850;2023-08-01T05:41:17;9.43;;;7.83;;
18999;SDS011;9633;50.980;13.850;2023-08-01T05:42:49;7.43;;;6.73;;
18999;SDS011;9633;50.980;13.850;2023-08-01T05:44:22;7.97;;;7.17;;
18999;SDS011;9633;50.980;13.850;2023-08-01T05:45:56;7.77;;;7.07;;
18999;SDS011;9633;50.980;13.850;2023-08-01T05:47:29;8.67;;;7.10;;
18999;SDS011;9633;50.980;13.850;2023-08-01T05:49:01;8.00;;;6.83;;
18999;SDS011;9633;50.980;13.850;2023-08-01T05:50:35;7.40;;;6.70;;
18999;SDS011;9633;50.980;13.850;2023-08-01T05:52:07;8.90;;;6.80;;
18999;SDS011;9633;50.980;13.850;2023-08-01T05:53:40;7.47;;;6.77;;
18999;SDS011;9633;50.980;13.850;2023-08-01T05:55:13;6.87;;;6.00;;
18999;SDS011;9633;50.980;13.850;2023-08-01T05:56:46;8.20;;;7.03;;
18999;SDS011;9633;50.980;13.850;2023-08-01T05:58:19;6.83;;;6.13;;
18999;SDS011;9633;50.980;13.850;2023-08-01T05:59:52;8.17;;;6.30;;
18999;SDS011;9633;50.980;13.850;2023-08-01T06:01:26;7.50;;;6.80;;
18999;SDS011;9633;50.980;13.850;2023-08-01T06:02:59;8.10;;;6.20;;
18999;SDS011;9633;50.980;13.850;2023-08-01T06:04:32;7.30;;;6.37;;
18999;SDS011;9633;50.980;13.850;2023-08-01T06:06:06;7.37;;;6.63;;
18999;SDS011;9633;50.980;13.850;2023-08-01T06:07:38;5.53;;;4.97;;
18999;SDS011;9633;50.980;13.850;2023-08-01T06:09:11;5.60;;;5.10;;
18999;SDS011;9633;50.980;13.850;2023-08-01T06:10:43;5.53;;;4.90;;
18999;SDS011;9633;50.980;13.850;2023-08-01T06:12:17;5.30;;;4.80;;
18999;SDS011;9633;50.980;13.850;2023-08-01T06:13:49;5.37;;;4.87;;
18999;SDS011;9633;50.980;13.850;2023-08-01T06:15:23;4.87;;;4.37;;
18999;SDS011;9633;50.980;13.850;2023-08-01T06:16:57;4.40;;;4.00;;
18999;SDS011;9633;50.980;13.850;2023-08-01T06:18:30;5.10;;;4.33;;
18999;SDS011;9633;50.980;13.850;2023-08-01T06:20:03;4.30;;;3.83;;
18999;SDS011;9633;50.980;13.850;2023-08-01T06:21:36;4.23;;;3.83;;
18999;SDS011;9633;50.980;13.850;2023-08-01T06:23:09;3.80;;;3.50;;
18999;SDS011;9633;50.980;13.850;2023-08-01T06:24:42;4.10;;;3.70;;
18999;SDS011;9633;50.980;13.850;2023-08-01T06:26:15;4.63;;;4.23;;
18999;SDS011;9633;50.980;13.850;2023-08-01T06:27:47;4.10;;;3.80;;
18999;SDS011;9633;50.980;13.850;2023-08-01T06:29:23;3.97;;;3.57;;
18999;SDS011;9633;50.980;13.850;2023-08-01T06:30:56;4.00;;;3.70;;
18999;SDS011;9633;50.980;13.850;2023-08-01T06:32:31;4.00;;;3.57;;
18999;SDS011;9633;50.980;13.850;2023-08-01T06:34:04;3.90;;;3.60;;
18999;SDS011;9633;50.980;13.850;2023-08-01T06:35:36;4.63;;;4.17;;
18999;SDS011;9633;50.980;13.850;2023-08-01T06:37:09;3.90;;;3.60;;
18999;SDS011;9633;50.980;13.850;2023-08-01T06:38:42;6.57;;;4.17;;
18999;SDS011;9633;50.980;13.850;2023-08-01T06:40:16;4.13;;;3.77;;
18999;SDS011;9633;50.980;13.850;2023-08-01T06:41:48;5.43;;;3.90;;
18999;SDS011;9633;50.980;13.850;2023-08-01T06:43:21;4.23;;;3.83;;
18999;SDS011;9633;50.980;13.850;2023-08-01T06:44:55;3.13;;;2.50;;
18999;SDS011;9633;50.980;13.850;2023-08-01T06:46:29;2.83;;;2.63;;
18999;SDS011;9633;50.980;13.850;2023-08-01T06:48:03;1.90;;;1.70;;
18999;SDS011;9633;50.980;13.850;2023-08-01T06:49:36;2.00;;;1.80;;
18999;SDS011;9633;50.980;13.850;2023-08-01T06:51:09;1.87;;;1.47;;
18999;SDS011;9633;50.980;13.850;2023-08-01T06:52:42;1.50;;;1.40;;
18999;SDS011;9633;50.980;13.850;2023-08-01T06:54:15;1.40;;;1.30;;
18999;SDS011;9633;50.980;13.850;2023-08-01T06:55:48;1.10;;;1.00;;
18999;SDS011;9633;50.980;13.850;2023-08-01T06:57:20;1.93;;;1.40;;
18999;SDS011;9633;50.980;13.850;2023-08-01T06:58:53;1.90;;;1.50;;
18999;SDS011;9633;50.980;13.850;2023-08-01T07:00:26;1.77;;;1.50;;
18999;SDS011;9633;50.980;13.850;2023-08-01T07:02:00;1.93;;;1.53;;
18999;SDS011;9633;50.980;13.850;2023-08-01T07:03:37;1.67;;;1.50;;
18999;SDS011;9633;50.980;13.850;2023-08-01T07:05:09;2.50;;;1.20;;
18999;SDS011;9633;50.980;13.850;2023-08-01T07:06:43;1.47;;;1.37;;
18999;SDS011;9633;50.980;13.850;2023-08-01T07:08:15;2.10;;;1.60;;
18999;SDS011;9633;50.980;13.850;2023-08-01T07:09:49;2.00;;;1.30;;
18999;SDS011;9633;50.980;13.850;2023-08-01T07:11:22;1.40;;;1.20;;
18999;SDS011;9633;50.980;13.850;2023-08-01T07:12:54;1.60;;;1.37;;
18999;SDS011;9633;50.980;13.850;2023-08-01T07:14:27;1.40;;;1.30;;
18999;SDS011;9633;50.980;13.850;2023-08-01T07:15:59;1.50;;;1.23;;
18999;SDS011;9633;50.980;13.850;2023-08-01T07:17:33;1.40;;;1.30;;
18999;SDS011;9633;50.980;13.850;2023-08-01T07:19:07;2.07;;;1.50;;
18999;SDS011;9633;50.980;13.850;2023-08-01T07:20:40;1.93;;;1.20;;
18999;SDS011;9633;50.980;13.850;2023-08-01T07:22:12;1.80;;;1.40;;
18999;SDS011;9633;50.980;13.850;2023-08-01T07:23:46;1.67;;;1.50;;
18999;SDS011;9633;50.980;13.850;2023-08-01T07:25:19;2.07;;;1.87;;
18999;SDS011;9633;50.980;13.850;2023-08-01T07:26:53;2.47;;;2.27;;
18999;SDS011;9633;50.980;13.850;2023-08-01T07:28:26;4.30;;;3.83;;
18999;SDS011;9633;50.980;13.850;2023-08-01T07:29:59;1.40;;;1.30;;
18999;SDS011;9633;50.980;13.850;2023-08-01T07:31:32;3.07;;;1.40;;
18999;SDS011;9633;50.980;13.850;2023-08-01T07:33:06;2.00;;;1.67;;
18999;SDS011;9633;50.980;13.850;2023-08-01T07:34:40;1.47;;;1.37;;
18999;SDS011;9633;50.980;13.850;2023-08-01T07:36:13;1.67;;;1.43;;
18999;SDS011;9633;50.980;13.850;2023-08-01T07:37:45;1.87;;;1.47;;
18999;SDS011;9633;50.980;13.850;2023-08-01T07:39:18;1.70;;;1.43;;
18999;SDS011;9633;50.980;13.850;2023-08-01T07:40:50;1.30;;;1.20;;
18999;SDS011;9633;50.980;13.850;2023-08-01T07:42:24;1.20;;;1.10;;
18999;SDS011;9633;50.980;13.850;2023-08-01T07:43:56;1.70;;;1.40;;
18999;SDS011;9633;50.980;13.850;2023-08-01T07:45:29;1.77;;;1.30;;
18999;SDS011;9633;50.980;13.850;2023-08-01T07:47:04;1.43;;;1.03;;
18999;SDS011;9633;50.980;13.850;2023-08-01T07:48:38;1.57;;;1.20;;
18999;SDS011;9633;50.980;13.850;2023-08-01T07:50:11;2.00;;;1.30;;
18999;SDS011;9633;50.980;13.850;2023-08-01T07:51:44;1.40;;;1.30;;
18999;SDS011;9633;50.980;13.850;2023-08-01T07:53:18;1.27;;;1.17;;
18999;SDS011;9633;50.980;13.850;2023-08-01T07:54:50;1.30;;;1.20;;
18999;SDS011;9633;50.980;13.850;2023-08-01T07:56:24;2.30;;;1.30;;
18999;SDS011;9633;50.980;13.850;2023-08-01T07:57:56;1.20;;;1.10;;
18999;SDS011;9633;50.980;13.850;2023-08-01T07:59:30;1.43;;;1.00;;
18999;SDS011;9633;50.980;13.850;2023-08-01T08:01:02;1.40;;;1.10;;
18999;SDS011;9633;50.980;13.850;2023-08-01T08:02:36;1.90;;;1.13;;
18999;SDS011;9633;50.980;13.850;2023-08-01T08:04:09;1.57;;;0.93;;
18999;SDS011;9633;50.980;13.850;2023-08-01T08:05:44;1.47;;;1.00;;
18999;SDS011;9633;50.980;13.850;2023-08-01T08:07:16;1.40;;;0.90;;
18999;SDS011;9633;50.980;13.850;2023-08-01T08:08:49;1.43;;;1.10;;
18999;SDS011;9633;50.980;13.850;2023-08-01T08:10:22;1.10;;;1.00;;
18999;SDS011;9633;50.980;13.850;2023-08-01T08:11:55;1.10;;;1.00;;
18999;SDS011;9633;50.980;13.850;2023-08-01T08:13:28;1.10;;;1.00;;
18999;SDS011;9633;50.980;13.850;2023-08-01T08:15:02;1.30;;;0.90;;
18999;SDS011;9633;50.980;13.850;2023-08-01T08:16:35;1.10;;;1.00;;
18999;SDS011;9633;50.980;13.850;2023-08-01T08:18:08;1.40;;;1.00;;
18999;SDS011;9633;50.980;13.850;2023-08-01T08:19:41;1.03;;;0.97;;
18999;SDS011;9633;50.980;13.850;2023-08-01T08:21:15;1.53;;;1.00;;
18999;SDS011;9633;50.980;13.850;2023-08-01T08:22:49;1.00;;;0.80;;
18999;SDS011;9633;50.980;13.850;2023-08-01T08:24:21;2.83;;;0.90;;
18999;SDS011;9633;50.980;13.850;2023-08-01T08:25:54;0.80;;;0.80;;
18999;SDS011;9633;50.980;13.850;2023-08-01T08:27:26;1.17;;;0.70;;
18999;SDS011;9633;50.980;13.850;2023-08-01T08:29:00;1.10;;;0.93;;
18999;SDS011;9633;50.980;13.850;2023-08-01T08:30:33;0.97;;;0.73;;
18999;SDS011;9633;50.980;13.850;2023-08-01T08:32:06;1.03;;;0.80;;
18999;SDS011;9633;50.980;13.850;2023-08-01T08:33:40;1.20;;;1.00;;
18999;SDS011;9633;50.980;13.850;2023-08-01T08:35:12;0.87;;;0.80;;
18999;SDS011;9633;50.980;13.850;2023-08-01T08:36:46;1.63;;;0.93;;
18999;SDS011;9633;50.980;13.850;2023-08-01T08:38:21;2.10;;;0.70;;
18999;SDS011;9633;50.980;13.850;2023-08-01T08:39:53;0.77;;;0.77;;
18999;SDS011;9633;50.980;13.850;2023-08-01T08:41:26;0.87;;;0.83;;
18999;SDS011;9633;50.980;13.850;2023-08-01T08:43:01;1.60;;;0.60;;
18999;SDS011;9633;50.980;13.850;2023-08-01T08:44:38;1.70;;;0.80;;
18999;SDS011;9633;50.980;13.850;2023-08-01T08:46:14;0.90;;;0.70;;
18999;SDS011;9633;50.980;13.850;2023-08-01T08:47:48;1.77;;;0.80;;
18999;SDS011;9633;50.980;13.850;2023-08-01T08:49:28;1.00;;;0.70;;
18999;SDS011;9633;50.980;13.850;2023-08-01T08:51:02;0.70;;;0.70;;
18999;SDS011;9633;50.980;13.850;2023-08-01T08:52:36;3.17;;;0.80;;
18999;SDS011;9633;50.980;13.850;2023-08-01T08:54:10;2.00;;;0.70;;
18999;SDS011;9633;50.980;13.850;2023-08-01T08:55:43;0.85;;;0.70;;
18999;SDS011;9633;50.980;13.850;2023-08-01T08:57:16;4.10;;;0.93;;
18999;SDS011;9633;50.980;13.850;2023-08-01T08:58:51;0.90;;;0.80;;
18999;SDS011;9633;50.980;13.850;2023-08-01T09:00:23;1.00;;;0.87;;
18999;SDS011;9633;50.980;13.850;2023-08-01T09:01:58;1.80;;;0.70;;
18999;SDS011;9633;50.980;13.850;2023-08-01T09:03:32;0.70;;;0.70;;
18999;SDS011;9633;50.980;13.850;2023-08-01T09:05:05;1.90;;;0.77;;
18999;SDS011;9633;50.980;13.850;2023-08-01T09:06:40;0.80;;;0.70;;
18999;SDS011;9633;50.980;13.850;2023-08-01T09:08:22;1.30;;;0.90;;
18999;SDS011;9633;50.980;13.850;2023-08-01T09:09:58;2.90;;;0.80;;
18999;SDS011;9633;50.980;13.850;2023-08-01T09:11:38;1.07;;;0.80;;
18999;SDS011;9633;50.980;13.850;2023-08-01T09:13:12;1.43;;;0.83;;
18999;SDS011;9633;50.980;13.850;2023-08-01T09:14:46;1.33;;;0.80;;
18999;SDS011;9633;50.980;13.850;2023-08-01T09:16:21;1.43;;;0.80;;
18999;SDS011;9633;50.980;13.850;2023-08-01T09:17:55;1.13;;;0.70;;
18999;SDS011;9633;50.980;13.850;2023-08-01T09:19:31;1.50;;;0.70;;
18999;SDS011;9633;50.980;13.850;2023-08-01T09:21:05;1.60;;;0.60;;
18999;SDS011;9633;50.980;13.850;2023-08-01T09:22:43;1.13;;;0.70;;